Time;durP1;ratioP1;P1;durP2;ratioP2;P2;SDS_P1;SDS_P2;PMS_P1;PMS_P2;Temp;Humidity;BMP_temperature;BMP_pressure;BME280_temperature;BME280_humidity;BME280_pressure;Samples;Min_cycle;Max_cycle;Signal;HPM_P1;HPM_P2
2021/05/08 00:02:24;;;;;;;16.37;5.70;;;;;;;;;;5127866;27;20252;-76
2021/05/08 00:04:50;;;;;;;13.60;6.38;;;;;;;;;;5121497;27;20394;-77
2021/05/08 00:07:17;;;;;;;8.95;5.15;;;;;;;;;;5122930;27;20182;-76
2021/05/08 00:09:43;;;;;;;8.57;5.10;;;;;;;;;;5118096;27;20611;-76
2021/05/08 00:12:09;;;;;;;5.40;4.90;;;;;;;;;;5115804;28;20218;-76
2021/05/08 00:14:35;;;;;;;10.23;5.68;;;;;;;;;;5119814;27;20591;-77
2021/05/08 00:17:01;;;;;;;10.43;5.22;;;;;;;;;;5126920;27;20238;-76
2021/05/08 00:19:27;;;;;;;10.63;5.00;;;;;;;;;;5131518;27;20194;-76
2021/05/08 00:21:53;;;;;;;15.30;5.00;;;;;;;;;;5119873;27;20390;-76
2021/05/08 00:24:19;;;;;;;15.40;5.40;;;;;;;;;;5119530;27;20181;-76
2021/05/08 00:26:45;;;;;;;9.82;6.03;;;;;;;;;;5136349;27;20825;-76
2021/05/08 00:29:11;;;;;;;7.57;5.60;;;;;;;;;;5116547;27;20203;-76
2021/05/08 00:31:37;;;;;;;12.57;5.60;;;;;;;;;;5115893;28;20691;-76
2021/05/08 00:34:04;;;;;;;7.05;4.80;;;;;;;;;;5133516;27;20407;-76
2021/05/08 00:36:30;;;;;;;9.05;5.57;;;;;;;;;;5129010;27;20210;-75
2021/05/08 00:38:56;;;;;;;8.80;5.50;;;;;;;;;;5125291;27;20277;-75
2021/05/08 00:41:21;;;;;;;12.47;5.87;;;;;;;;;;5131933;27;20254;-76
2021/05/08 00:43:53;;;;;;;8.77;4.60;;;;;;;;;;5130558;27;21052;-75
2021/05/08 00:46:21;;;;;;;7.07;4.90;;;;;;;;;;5113182;27;20401;-76
2021/05/08 00:48:47;;;;;;;11.25;5.55;;;;;;;;;;5117518;27;20199;-76
2021/05/08 00:51:13;;;;;;;7.30;5.25;;;;;;;;;;5114166;27;20581;-76
2021/05/08 00:53:39;;;;;;;11.80;6.10;;;;;;;;;;5114574;28;20186;-76
2021/05/08 00:56:07;;;;;;;11.80;6.10;;;;;;;;;;5110727;27;20435;-76
2021/05/08 00:58:34;;;;;;;14.00;6.05;;;;;;;;;;5112612;27;20444;-76
2021/05/08 01:01:00;;;;;;;12.38;5.55;;;;;;;;;;5115141;28;20551;-76
2021/05/08 01:03:26;;;;;;;7.78;5.95;;;;;;;;;;5122245;27;20171;-76
2021/05/08 01:05:52;;;;;;;7.17;5.37;;;;;;;;;;5113870;27;20248;-77
2021/05/08 01:08:18;;;;;;;8.13;6.05;;;;;;;;;;5113357;28;20430;-76
2021/05/08 01:10:44;;;;;;;14.93;5.87;;;;;;;;;;5115501;27;20174;-76
2021/05/08 01:13:10;;;;;;;12.20;5.95;;;;;;;;;;5114704;27;20391;-76
2021/05/08 01:15:36;;;;;;;10.13;5.90;;;;;;;;;;5123999;27;20520;-75
2021/05/08 01:18:02;;;;;;;12.02;6.20;;;;;;;;;;5127708;27;20242;-76
2021/05/08 01:20:28;;;;;;;10.73;5.60;;;;;;;;;;5136561;27;20649;-76
2021/05/08 01:22:54;;;;;;;11.35;5.90;;;;;;;;;;5113091;27;20184;-75
2021/05/08 01:25:25;;;;;;;10.30;5.77;;;;;;;;;;5126288;27;20180;-75
2021/05/08 01:27:55;;;;;;;8.70;5.50;;;;;;;;;;5101259;27;20833;-75
2021/05/08 01:30:23;;;;;;;10.38;6.07;;;;;;;;;;5114161;27;20179;-75
2021/05/08 01:32:49;;;;;;;8.85;6.30;;;;;;;;;;5116555;27;20635;-76
2021/05/08 01:35:15;;;;;;;10.98;5.63;;;;;;;;;;5123946;27;20208;-75
2021/05/08 01:37:42;;;;;;;10.13;5.38;;;;;;;;;;5133039;27;20174;-76
2021/05/08 01:40:11;;;;;;;11.27;5.95;;;;;;;;;;5129216;27;20201;-76
2021/05/08 01:42:38;;;;;;;10.02;6.20;;;;;;;;;;5134311;27;20226;-76
2021/05/08 01:45:15;;;;;;;9.48;6.13;;;;;;;;;;5123891;27;20186;-76
2021/05/08 01:47:41;;;;;;;9.30;6.38;;;;;;;;;;5117220;27;20698;-76
2021/05/08 01:50:08;;;;;;;11.07;6.00;;;;;;;;;;5134501;27;20177;-75
2021/05/08 01:52:34;;;;;;;8.93;6.30;;;;;;;;;;5119543;27;20592;-76
2021/05/08 01:55:02;;;;;;;7.80;6.00;;;;;;;;;;5130215;27;20205;-75
2021/05/08 01:57:27;;;;;;;8.70;6.35;;;;;;;;;;5112676;28;20182;-76
2021/05/08 01:59:53;;;;;;;9.97;6.70;;;;;;;;;;5113459;28;20175;-75
2021/05/08 02:02:19;;;;;;;11.13;6.60;;;;;;;;;;5112696;28;20489;-76
2021/05/08 02:04:46;;;;;;;8.13;5.90;;;;;;;;;;5113566;28;20403;-76
2021/05/08 02:07:12;;;;;;;8.70;6.25;;;;;;;;;;5120679;27;20467;-76
2021/05/08 02:09:38;;;;;;;12.87;7.20;;;;;;;;;;5115420;27;20206;-76
2021/05/08 02:12:04;;;;;;;14.93;7.17;;;;;;;;;;5112623;27;20484;-77
2021/05/08 02:14:30;;;;;;;10.48;5.95;;;;;;;;;;5114860;27;20787;-76
2021/05/08 02:16:56;;;;;;;11.57;6.67;;;;;;;;;;5125065;27;20179;-77
2021/05/08 02:19:22;;;;;;;10.37;6.60;;;;;;;;;;5114826;27;20410;-77
2021/05/08 02:21:48;;;;;;;8.60;6.70;;;;;;;;;;5114825;27;20482;-77
2021/05/08 02:24:14;;;;;;;12.88;6.68;;;;;;;;;;5113826;28;20421;-77
2021/05/08 02:26:40;;;;;;;12.20;6.23;;;;;;;;;;5120021;28;20178;-76
2021/05/08 02:29:06;;;;;;;13.63;7.03;;;;;;;;;;5112877;28;20804;-76
2021/05/08 02:31:32;;;;;;;8.93;6.80;;;;;;;;;;5120609;27;20234;-76
2021/05/08 02:33:58;;;;;;;17.20;7.32;;;;;;;;;;5138219;27;20411;-76
2021/05/08 02:36:24;;;;;;;12.43;6.45;;;;;;;;;;5140712;27;20282;-76
2021/05/08 02:38:50;;;;;;;9.80;7.07;;;;;;;;;;5133821;27;20685;-76
2021/05/08 02:41:16;;;;;;;11.80;6.93;;;;;;;;;;5120526;27;20187;-76
2021/05/08 02:43:42;;;;;;;10.98;6.85;;;;;;;;;;5113079;27;20429;-76
2021/05/08 02:46:08;;;;;;;11.33;7.43;;;;;;;;;;5114730;28;20181;-76
2021/05/08 02:48:34;;;;;;;14.23;7.90;;;;;;;;;;5114758;27;20422;-77
2021/05/08 02:51:00;;;;;;;8.52;6.88;;;;;;;;;;5129893;27;20170;-77
2021/05/08 02:53:26;;;;;;;11.17;6.40;;;;;;;;;;5114656;27;20261;-76
2021/05/08 02:55:52;;;;;;;13.10;7.67;;;;;;;;;;5120108;27;20451;-76
2021/05/08 02:58:18;;;;;;;13.23;6.90;;;;;;;;;;5119766;27;20435;-76
2021/05/08 03:00:44;;;;;;;9.27;6.90;;;;;;;;;;5118384;27;20403;-76
2021/05/08 03:03:10;;;;;;;14.57;7.47;;;;;;;;;;5123170;27;20417;-77
2021/05/08 03:05:36;;;;;;;10.20;7.40;;;;;;;;;;5121614;27;20190;-77
2021/05/08 03:08:01;;;;;;;9.75;7.50;;;;;;;;;;5135145;27;20452;-76
2021/05/08 03:10:28;;;;;;;8.50;7.37;;;;;;;;;;5110654;27;20509;-77
2021/05/08 03:12:53;;;;;;;13.98;7.50;;;;;;;;;;5135729;27;20385;-76
2021/05/08 03:15:22;;;;;;;11.68;7.40;;;;;;;;;;5130465;27;20359;-76
2021/05/08 03:17:48;;;;;;;16.48;8.13;;;;;;;;;;5138502;27;20194;-77
2021/05/08 03:20:14;;;;;;;13.30;7.07;;;;;;;;;;5122075;27;20170;-76
2021/05/08 03:22:40;;;;;;;16.20;7.63;;;;;;;;;;5111054;27;20195;-76
2021/05/08 03:25:06;;;;;;;11.43;7.40;;;;;;;;;;5121393;27;20225;-76
2021/05/08 03:27:32;;;;;;;13.52;7.50;;;;;;;;;;5119840;27;20415;-76
2021/05/08 03:29:58;;;;;;;9.33;7.67;;;;;;;;;;5112586;27;20636;-77
2021/05/08 03:32:24;;;;;;;16.07;6.90;;;;;;;;;;5122245;27;20499;-77
2021/05/08 03:34:51;;;;;;;9.63;7.10;;;;;;;;;;5135004;27;20415;-77
2021/05/08 03:37:17;;;;;;;15.50;8.18;;;;;;;;;;5130543;27;20400;-77
2021/05/08 03:39:43;;;;;;;13.88;8.18;;;;;;;;;;5114285;27;20199;-77
2021/05/08 03:42:09;;;;;;;12.87;8.10;;;;;;;;;;5134335;27;20181;-76
2021/05/08 03:44:35;;;;;;;10.55;7.47;;;;;;;;;;5120738;27;20426;-77
2021/05/08 03:47:01;;;;;;;11.80;6.97;;;;;;;;;;5136693;27;20174;-77
2021/05/08 03:49:27;;;;;;;12.20;7.70;;;;;;;;;;5128234;27;20526;-75
2021/05/08 03:51:58;;;;;;;11.43;8.07;;;;;;;;;;5118567;27;20453;-76
2021/05/08 03:54:24;;;;;;;13.85;7.90;;;;;;;;;;5116340;27;20416;-75
2021/05/08 03:56:50;;;;;;;14.90;8.15;;;;;;;;;;5127032;27;20194;-75
2021/05/08 03:59:16;;;;;;;9.85;7.75;;;;;;;;;;5113519;27;20194;-76
2021/05/08 04:01:42;;;;;;;13.30;7.20;;;;;;;;;;5135001;27;20508;-76
2021/05/08 04:04:08;;;;;;;11.80;7.60;;;;;;;;;;5125030;27;20450;-76
2021/05/08 04:06:34;;;;;;;15.93;7.70;;;;;;;;;;5134698;27;20484;-75
2021/05/08 04:09:00;;;;;;;9.80;7.40;;;;;;;;;;5123782;27;20440;-76
2021/05/08 04:11:26;;;;;;;11.30;7.63;;;;;;;;;;5111474;27;20462;-75
2021/05/08 04:13:51;;;;;;;20.77;8.17;;;;;;;;;;5107234;27;20431;-75
2021/05/08 04:16:17;;;;;;;12.30;8.50;;;;;;;;;;5111869;27;20460;-76
2021/05/08 04:18:43;;;;;;;16.33;7.50;;;;;;;;;;5118348;27;20412;-77
2021/05/08 04:21:09;;;;;;;14.37;7.57;;;;;;;;;;5129351;27;20843;-75
2021/05/08 04:23:35;;;;;;;10.93;8.80;;;;;;;;;;5108982;27;20765;-76
2021/05/08 04:26:01;;;;;;;10.70;8.20;;;;;;;;;;5119330;27;20806;-76
2021/05/08 04:28:27;;;;;;;10.87;7.50;;;;;;;;;;5112346;27;20418;-77
2021/05/08 04:30:53;;;;;;;12.67;8.47;;;;;;;;;;5109867;27;20402;-77
2021/05/08 04:33:20;;;;;;;13.20;7.70;;;;;;;;;;5115527;27;20402;-76
2021/05/08 04:35:46;;;;;;;14.73;9.85;;;;;;;;;;5128817;27;20472;-76
2021/05/08 04:38:12;;;;;;;12.77;8.30;;;;;;;;;;5115085;28;20281;-75
2021/05/08 04:40:38;;;;;;;13.68;8.93;;;;;;;;;;5129439;27;20571;-76
2021/05/08 04:43:04;;;;;;;13.68;8.10;;;;;;;;;;5105114;28;20183;-76
2021/05/08 04:45:30;;;;;;;12.27;8.67;;;;;;;;;;5113007;28;20628;-76
2021/05/08 04:47:57;;;;;;;15.70;9.27;;;;;;;;;;5113659;28;20839;-76
2021/05/08 04:50:24;;;;;;;13.73;10.25;;;;;;;;;;5130207;27;20538;-76
2021/05/08 04:52:50;;;;;;;16.88;8.65;;;;;;;;;;5134941;27;20188;-76
2021/05/08 04:55:16;;;;;;;11.65;8.52;;;;;;;;;;5130797;27;20553;-76
2021/05/08 04:57:42;;;;;;;11.98;8.95;;;;;;;;;;5123234;27;20617;-76
2021/05/08 05:00:10;;;;;;;10.70;8.85;;;;;;;;;;5110149;27;20626;-76
2021/05/08 05:02:36;;;;;;;12.32;8.60;;;;;;;;;;5114811;27;20171;-76
2021/05/08 05:05:02;;;;;;;15.73;10.13;;;;;;;;;;5133573;27;20609;-76
2021/05/08 05:07:28;;;;;;;12.57;10.00;;;;;;;;;;5130380;27;20178;-76
2021/05/08 05:09:54;;;;;;;15.47;9.50;;;;;;;;;;5119090;27;20436;-76
2021/05/08 05:12:20;;;;;;;9.73;8.50;;;;;;;;;;5109117;28;20418;-76
2021/05/08 05:14:46;;;;;;;15.93;8.73;;;;;;;;;;5108207;28;20905;-76
2021/05/08 05:17:12;;;;;;;14.80;9.90;;;;;;;;;;5111379;28;20223;-76
2021/05/08 05:19:38;;;;;;;12.40;9.48;;;;;;;;;;5114049;28;20511;-77
2021/05/08 05:22:04;;;;;;;13.93;8.73;;;;;;;;;;5115415;27;20174;-77
2021/05/08 05:24:30;;;;;;;11.40;9.10;;;;;;;;;;5119949;27;20505;-77
2021/05/08 05:26:56;;;;;;;13.23;9.60;;;;;;;;;;5135185;27;20394;-76
2021/05/08 05:29:22;;;;;;;12.93;9.90;;;;;;;;;;5120857;27;20414;-80
2021/05/08 05:31:48;;;;;;;13.20;10.03;;;;;;;;;;5133276;27;20193;-77
2021/05/08 05:34:14;;;;;;;12.48;9.70;;;;;;;;;;5124816;27;20397;-76
2021/05/08 05:36:40;;;;;;;13.70;9.65;;;;;;;;;;5122843;27;20221;-76
2021/05/08 05:39:06;;;;;;;13.52;9.18;;;;;;;;;;5115213;27;20269;-76
2021/05/08 05:41:32;;;;;;;13.23;9.30;;;;;;;;;;5114354;28;20177;-76
2021/05/08 05:44:00;;;;;;;16.17;9.48;;;;;;;;;;5115030;27;20253;-77
2021/05/08 05:46:26;;;;;;;14.35;8.95;;;;;;;;;;5114149;28;20269;-76
2021/05/08 05:48:52;;;;;;;12.93;9.10;;;;;;;;;;5132006;27;20227;-77
2021/05/08 05:51:18;;;;;;;12.10;9.73;;;;;;;;;;5127199;27;20427;-76
2021/05/08 05:53:44;;;;;;;9.90;8.18;;;;;;;;;;5131454;27;20386;-75
2021/05/08 05:56:10;;;;;;;10.50;9.17;;;;;;;;;;5122351;27;20709;-76
2021/05/08 05:58:36;;;;;;;11.30;8.80;;;;;;;;;;5116634;27;20409;-75
2021/05/08 06:01:03;;;;;;;11.50;9.05;;;;;;;;;;5134465;27;20173;-74
2021/05/08 06:03:29;;;;;;;17.33;8.93;;;;;;;;;;5133339;27;20195;-75
2021/05/08 06:05:55;;;;;;;11.63;8.73;;;;;;;;;;5134203;27;20599;-73
2021/05/08 06:08:20;;;;;;;13.60;9.57;;;;;;;;;;5133928;27;20420;-75
2021/05/08 06:10:46;;;;;;;13.67;8.47;;;;;;;;;;5134450;27;20177;-77
2021/05/08 06:13:13;;;;;;;12.47;9.00;;;;;;;;;;5129328;27;20875;-76
2021/05/08 06:15:39;;;;;;;13.18;9.13;;;;;;;;;;5125345;27;20453;-75
2021/05/08 06:18:06;;;;;;;16.55;8.50;;;;;;;;;;5129288;27;20558;-76
2021/05/08 06:20:32;;;;;;;10.90;8.55;;;;;;;;;;5125340;27;20209;-75
2021/05/08 06:22:58;;;;;;;10.50;8.77;;;;;;;;;;5134031;27;20178;-75
2021/05/08 06:25:24;;;;;;;13.63;9.25;;;;;;;;;;5134219;27;20189;-78
2021/05/08 06:27:50;;;;;;;10.75;8.48;;;;;;;;;;5127169;28;20205;-74
2021/05/08 06:30:16;;;;;;;11.68;9.15;;;;;;;;;;5124599;28;20177;-76
2021/05/08 06:32:42;;;;;;;13.52;9.02;;;;;;;;;;5134107;28;20296;-76
2021/05/08 06:35:08;;;;;;;18.60;9.50;;;;;;;;;;5133860;28;20665;-75
2021/05/08 06:37:34;;;;;;;15.65;9.88;;;;;;;;;;5133740;28;20776;-73
2021/05/08 06:40:00;;;;;;;14.05;9.65;;;;;;;;;;5126438;28;20170;-75
2021/05/08 06:42:26;;;;;;;14.05;9.85;;;;;;;;;;5128741;28;20162;-76
2021/05/08 06:44:52;;;;;;;11.50;9.15;;;;;;;;;;5125539;28;20174;-75
2021/05/08 06:47:18;;;;;;;11.82;8.18;;;;;;;;;;5133986;28;20180;-76
2021/05/08 06:49:45;;;;;;;12.32;8.38;;;;;;;;;;5134069;28;20265;-76
2021/05/08 06:52:11;;;;;;;10.50;8.13;;;;;;;;;;5133664;28;20530;-73
2021/05/08 06:54:37;;;;;;;11.30;10.13;;;;;;;;;;5133531;28;20177;-76
2021/05/08 06:57:04;;;;;;;13.68;8.15;;;;;;;;;;5112785;28;20622;-74
2021/05/08 06:59:30;;;;;;;13.32;8.00;;;;;;;;;;5116821;28;20189;-75
2021/05/08 07:01:56;;;;;;;16.20;8.50;;;;;;;;;;5130356;28;20177;-74
2021/05/08 07:04:22;;;;;;;13.65;9.73;;;;;;;;;;5112777;28;20437;-72
2021/05/08 07:06:48;;;;;;;9.47;8.23;;;;;;;;;;5131610;28;20610;-74
2021/05/08 07:09:14;;;;;;;12.13;7.45;;;;;;;;;;5112817;28;20527;-76
2021/05/08 07:11:40;;;;;;;13.70;8.17;;;;;;;;;;5101901;28;20285;-77
2021/05/08 07:14:06;;;;;;;11.00;9.60;;;;;;;;;;5113138;28;20409;-76
2021/05/08 07:16:32;;;;;;;10.37;8.50;;;;;;;;;;5112240;27;20554;-76
2021/05/08 07:18:58;;;;;;;11.35;8.70;;;;;;;;;;5133699;27;20456;-76
2021/05/08 07:21:24;;;;;;;14.90;8.60;;;;;;;;;;5125690;27;20695;-76
2021/05/08 07:23:50;;;;;;;11.23;8.10;;;;;;;;;;5133262;27;20411;-77
2021/05/08 07:26:17;;;;;;;10.52;8.10;;;;;;;;;;5124244;27;20183;-75
2021/05/08 07:28:43;;;;;;;11.90;8.77;;;;;;;;;;5112768;28;20219;-76
2021/05/08 07:31:09;;;;;;;7.60;6.80;;;;;;;;;;5130004;27;20265;-76
2021/05/08 07:33:35;;;;;;;14.73;6.70;;;;;;;;;;5133454;27;20264;-75
2021/05/08 07:36:01;;;;;;;8.00;6.70;;;;;;;;;;5128232;27;20973;-73
2021/05/08 07:38:27;;;;;;;8.37;6.20;;;;;;;;;;5112372;28;20428;-78
2021/05/08 07:40:53;;;;;;;9.25;6.30;;;;;;;;;;5127351;27;20404;-76
2021/05/08 07:43:20;;;;;;;10.35;6.72;;;;;;;;;;5114074;27;20170;-76
2021/05/08 07:45:47;;;;;;;8.13;5.60;;;;;;;;;;5131173;27;20182;-77
2021/05/08 07:48:13;;;;;;;12.88;7.15;;;;;;;;;;5116908;27;20221;-74
2021/05/08 07:50:39;;;;;;;10.25;5.20;;;;;;;;;;5132814;27;20535;-73
2021/05/08 07:53:05;;;;;;;8.18;5.28;;;;;;;;;;5119305;27;20210;-75
2021/05/08 07:55:32;;;;;;;9.55;5.32;;;;;;;;;;5129341;27;20597;-74
2021/05/08 07:57:58;;;;;;;8.65;4.50;;;;;;;;;;5117062;27;20970;-76
2021/05/08 08:00:24;;;;;;;11.27;4.80;;;;;;;;;;5113538;27;20186;-76
2021/05/08 08:02:50;;;;;;;10.05;7.30;;;;;;;;;;5103423;27;20423;-77
2021/05/08 08:05:16;;;;;;;6.82;4.30;;;;;;;;;;5121490;27;20274;-76
2021/05/08 08:07:43;;;;;;;8.95;4.72;;;;;;;;;;5107176;28;20186;-75
2021/05/08 08:10:09;;;;;;;5.60;4.10;;;;;;;;;;5099292;27;20207;-76
2021/05/08 08:12:35;;;;;;;8.63;5.10;;;;;;;;;;5117181;27;20192;-74
2021/05/08 08:15:01;;;;;;;5.10;4.00;;;;;;;;;;5109646;27;20182;-76
2021/05/08 08:17:32;;;;;;;9.95;4.90;;;;;;;;;;5132692;27;20201;-75
2021/05/08 08:19:58;;;;;;;6.30;3.70;;;;;;;;;;5117521;27;20174;-74
2021/05/08 08:22:24;;;;;;;5.85;4.60;;;;;;;;;;5132385;27;20182;-76
2021/05/08 08:24:50;;;;;;;5.53;3.47;;;;;;;;;;5120245;27;20184;-75
2021/05/08 08:27:16;;;;;;;4.40;3.58;;;;;;;;;;5129017;27;20411;-75
2021/05/08 08:29:42;;;;;;;6.43;3.53;;;;;;;;;;5118269;27;20198;-75
2021/05/08 08:32:08;;;;;;;4.63;3.67;;;;;;;;;;5131457;27;20426;-75
2021/05/08 08:34:34;;;;;;;4.38;3.40;;;;;;;;;;5131900;27;20177;-74
2021/05/08 08:37:01;;;;;;;4.70;3.30;;;;;;;;;;5131288;27;20204;-76
2021/05/08 08:39:28;;;;;;;3.95;3.22;;;;;;;;;;5111628;27;20208;-76
2021/05/08 08:41:54;;;;;;;7.45;3.50;;;;;;;;;;5131452;27;20186;-75
2021/05/08 08:44:20;;;;;;;4.72;3.20;;;;;;;;;;5111235;28;20214;-76
2021/05/08 08:46:47;;;;;;;13.25;3.67;;;;;;;;;;5120548;27;20202;-74
2021/05/08 08:49:14;;;;;;;6.20;3.55;;;;;;;;;;5108161;27;20285;-76
2021/05/08 08:51:41;;;;;;;4.20;3.40;;;;;;;;;;5133039;27;20194;-75
2021/05/08 08:54:07;;;;;;;5.07;3.45;;;;;;;;;;5113688;27;20185;-75
2021/05/08 08:56:41;;;;;;;4.55;3.00;;;;;;;;;;5116936;27;20717;-75
2021/05/08 09:02:06;;;;;;;4.15;2.90;;;;;;;;;;5127070;27;20245;-75
2021/05/08 09:04:32;;;;;;;7.87;3.83;;;;;;;;;;5124645;27;20651;-76
2021/05/08 09:06:59;;;;;;;3.80;2.83;;;;;;;;;;5115081;27;20432;-74
2021/05/08 09:09:25;;;;;;;5.90;3.90;;;;;;;;;;5124233;27;20431;-78
2021/05/08 09:11:52;;;;;;;5.18;3.78;;;;;;;;;;5115070;27;20183;-73
2021/05/08 09:14:28;;;;;;;8.27;4.80;;;;;;;;;;5113684;27;20263;-75
2021/05/08 09:17:05;;;;;;;5.78;3.80;;;;;;;;;;5112181;27;20206;-77
2021/05/08 09:19:31;;;;;;;5.25;3.28;;;;;;;;;;5131126;27;20734;-75
2021/05/08 09:21:58;;;;;;;6.07;3.53;;;;;;;;;;5114810;27;20232;-77
2021/05/08 09:24:24;;;;;;;7.20;3.78;;;;;;;;;;5113361;27;20185;-78
2021/05/08 09:26:52;;;;;;;4.43;3.85;;;;;;;;;;5117629;27;20182;-77
2021/05/08 09:29:24;;;;;;;5.30;3.50;;;;;;;;;;5107282;27;20257;-76
2021/05/08 09:31:57;;;;;;;6.30;3.78;;;;;;;;;;5120751;27;20183;-76
2021/05/08 09:34:23;;;;;;;7.60;3.53;;;;;;;;;;5110791;27;20192;-75
2021/05/08 09:36:53;;;;;;;6.00;3.53;;;;;;;;;;5130610;27;20208;-75
2021/05/08 09:39:32;;;;;;;4.75;3.10;;;;;;;;;;5119717;27;20198;-76
2021/05/08 09:41:58;;;;;;;5.85;3.92;;;;;;;;;;5124331;27;20174;-76
2021/05/08 09:44:24;;;;;;;5.68;2.90;;;;;;;;;;5118351;27;20268;-75
2021/05/08 09:46:51;;;;;;;7.77;5.20;;;;;;;;;;5126700;27;20587;-77
2021/05/08 09:49:20;;;;;;;3.15;2.67;;;;;;;;;;5130679;27;20540;-76
2021/05/08 09:51:46;;;;;;;4.07;3.13;;;;;;;;;;5128101;27;20534;-76
2021/05/08 09:54:19;;;;;;;3.73;3.10;;;;;;;;;;5109858;28;20456;-76
2021/05/08 09:56:49;;;;;;;4.10;2.73;;;;;;;;;;5126669;27;20469;-77
2021/05/08 09:59:22;;;;;;;4.30;3.13;;;;;;;;;;5130611;27;20436;-77
2021/05/08 10:01:48;;;;;;;4.27;3.40;;;;;;;;;;5101774;27;20426;-77
2021/05/08 10:04:27;;;;;;;6.50;3.43;;;;;;;;;;5105748;28;20408;-76
2021/05/08 10:07:09;;;;;;;4.93;2.90;;;;;;;;;;5130226;27;20933;-75
2021/05/08 10:09:35;;;;;;;3.57;3.10;;;;;;;;;;5104395;27;20473;-76
2021/05/08 10:12:03;;;;;;;4.03;3.00;;;;;;;;;;5125032;27;20456;-74
2021/05/08 10:14:29;;;;;;;3.70;3.07;;;;;;;;;;5109407;27;20899;-76
2021/05/08 10:16:57;;;;;;;4.03;2.73;;;;;;;;;;5107986;27;20458;-75
2021/05/08 10:19:23;;;;;;;3.70;3.03;;;;;;;;;;5127716;27;20928;-74
2021/05/08 10:21:49;;;;;;;4.90;3.03;;;;;;;;;;5110197;27;20470;-75
2021/05/08 10:24:16;;;;;;;3.40;3.10;;;;;;;;;;5122114;27;20427;-75
2021/05/08 10:26:43;;;;;;;4.23;3.50;;;;;;;;;;5130320;27;20819;-75
2021/05/08 10:29:09;;;;;;;3.70;2.53;;;;;;;;;;5102962;28;20450;-76
2021/05/08 10:31:36;;;;;;;4.80;3.43;;;;;;;;;;5103463;28;20512;-76
2021/05/08 10:34:02;;;;;;;4.63;4.00;;;;;;;;;;5109240;28;20415;-76
2021/05/08 10:36:47;;;;;;;4.33;3.40;;;;;;;;;;5125370;28;20474;-75
2021/05/08 10:39:13;;;;;;;5.60;3.40;;;;;;;;;;5124831;28;20446;-78
2021/05/08 10:41:51;;;;;;;4.13;3.40;;;;;;;;;;5123351;28;20469;-75
2021/05/08 10:44:56;;;;;;;4.83;3.70;;;;;;;;;;5102964;28;20901;-75
2021/05/08 10:47:22;;;;;;;4.70;3.70;;;;;;;;;;5065693;28;20978;-74
2021/05/08 10:50:06;;;;;;;3.87;3.50;;;;;;;;;;5088571;28;20468;-76
2021/05/08 10:52:51;;;;;;;4.37;3.57;;;;;;;;;;5112336;27;21186;-75
2021/05/08 10:55:23;;;;;;;5.37;4.20;;;;;;;;;;5129539;27;20458;-76
2021/05/08 10:58:08;;;;;;;6.17;3.67;;;;;;;;;;5115256;27;20788;-76
2021/05/08 11:00:57;;;;;;;3.90;3.50;;;;;;;;;;5125966;27;20696;-75
2021/05/08 11:03:33;;;;;;;4.73;3.77;;;;;;;;;;5120915;27;20830;-75
2021/05/08 11:06:03;;;;;;;7.30;6.70;;;;;;;;;;5125432;27;20443;-75
2021/05/08 11:08:30;;;;;;;4.67;3.83;;;;;;;;;;5118408;27;20461;-74
2021/05/08 11:11:09;;;;;;;5.93;3.80;;;;;;;;;;5122060;27;20928;-75
2021/05/08 11:13:41;;;;;;;4.93;4.50;;;;;;;;;;5105314;27;20811;-76
2021/05/08 11:16:07;;;;;;;5.53;3.80;;;;;;;;;;5117692;27;20551;-76
2021/05/08 11:18:35;;;;;;;6.57;4.30;;;;;;;;;;5132290;27;20439;-76
2021/05/08 11:21:03;;;;;;;4.03;3.70;;;;;;;;;;5116429;27;21288;-76
2021/05/08 11:23:41;;;;;;;5.00;3.93;;;;;;;;;;5121896;27;20413;-75
2021/05/08 11:26:23;;;;;;;4.50;4.03;;;;;;;;;;5125580;27;20437;-74
2021/05/08 11:29:10;;;;;;;4.80;4.40;;;;;;;;;;5108859;28;20980;-78
2021/05/08 11:31:45;;;;;;;3.97;3.67;;;;;;;;;;5114063;27;20419;-74
2021/05/08 11:34:11;;;;;;;6.17;4.33;;;;;;;;;;5115817;27;20406;-74
2021/05/08 11:36:55;;;;;;;4.23;3.80;;;;;;;;;;5115694;27;20826;-75
2021/05/08 11:39:25;;;;;;;5.20;3.93;;;;;;;;;;5117668;27;20447;-74
2021/05/08 11:41:53;;;;;;;5.57;5.07;;;;;;;;;;5112862;28;20807;-75
2021/05/08 11:44:23;;;;;;;6.73;5.37;;;;;;;;;;5108274;27;20414;-77
2021/05/08 11:46:53;;;;;;;4.90;4.17;;;;;;;;;;5106726;28;20795;-73
2021/05/08 11:49:28;;;;;;;5.93;5.43;;;;;;;;;;5112166;28;20424;-75
2021/05/08 11:51:55;;;;;;;22.93;18.20;;;;;;;;;;5122906;27;20506;-75
2021/05/08 11:54:21;;;;;;;5.97;5.47;;;;;;;;;;5122439;27;20407;-76
2021/05/08 11:56:47;;;;;;;4.97;4.47;;;;;;;;;;5133159;27;20539;-76
2021/05/08 11:59:13;;;;;;;6.10;4.30;;;;;;;;;;5132988;27;20899;-75
2021/05/08 12:01:39;;;;;;;6.83;4.70;;;;;;;;;;5130496;27;20404;-74
2021/05/08 12:04:06;;;;;;;5.70;5.07;;;;;;;;;;5117652;27;20458;-72
2021/05/08 12:06:32;;;;;;;5.43;4.60;;;;;;;;;;5110381;27;20435;-75
2021/05/08 12:09:07;;;;;;;4.87;4.40;;;;;;;;;;5132593;27;20526;-76
2021/05/08 12:11:33;;;;;;;4.80;4.10;;;;;;;;;;5110161;27;20449;-75
2021/05/08 12:14:10;;;;;;;4.90;4.30;;;;;;;;;;5112434;27;20424;-75
2021/05/08 12:16:36;;;;;;;4.97;4.57;;;;;;;;;;5118473;27;20503;-73
2021/05/08 12:19:03;;;;;;;5.27;4.87;;;;;;;;;;5112574;27;20492;-74
2021/05/08 12:21:29;;;;;;;6.93;5.03;;;;;;;;;;5132170;27;20420;-75
2021/05/08 12:23:55;;;;;;;4.43;3.70;;;;;;;;;;5132335;27;20422;-76
2021/05/08 12:26:21;;;;;;;3.73;3.30;;;;;;;;;;5132326;27;20480;-74
2021/05/08 12:28:47;;;;;;;4.10;3.63;;;;;;;;;;5117463;27;20444;-76
2021/05/08 12:31:21;;;;;;;4.23;3.53;;;;;;;;;;5112440;28;20465;-74
2021/05/08 12:33:47;;;;;;;3.70;3.30;;;;;;;;;;5125929;27;20947;-76
2021/05/08 12:36:14;;;;;;;3.93;3.47;;;;;;;;;;5132311;27;20487;-79
2021/05/08 12:38:40;;;;;;;4.20;3.90;;;;;;;;;;5124854;27;20823;-74
2021/05/08 12:41:24;;;;;;;5.90;4.00;;;;;;;;;;5118495;27;20777;-74
2021/05/08 12:43:50;;;;;;;4.13;3.73;;;;;;;;;;5132405;27;20804;-74
2021/05/08 12:46:16;;;;;;;4.20;3.80;;;;;;;;;;5132144;27;20414;-75
2021/05/08 12:48:45;;;;;;;6.23;4.63;;;;;;;;;;5132333;27;20436;-77
2021/05/08 12:51:30;;;;;;;5.00;3.97;;;;;;;;;;5132395;27;20454;-75
2021/05/08 12:54:15;;;;;;;4.57;4.17;;;;;;;;;;5131900;27;20763;-75
2021/05/08 12:56:41;;;;;;;4.43;3.70;;;;;;;;;;5132140;27;20473;-75
2021/05/08 12:59:08;;;;;;;4.03;3.60;;;;;;;;;;5131868;27;20518;-76
2021/05/08 13:01:36;;;;;;;7.77;4.00;;;;;;;;;;5131921;27;20416;-75
2021/05/08 13:04:02;;;;;;;7.17;4.40;;;;;;;;;;5119554;27;20412;-75
2021/05/08 13:06:28;;;;;;;5.27;4.43;;;;;;;;;;5122399;27;20443;-75
2021/05/08 13:08:54;;;;;;;5.17;3.53;;;;;;;;;;5128211;27;20440;-76
2021/05/08 13:11:40;;;;;;;4.20;3.50;;;;;;;;;;5126128;27;20472;-74
2021/05/08 13:14:25;;;;;;;3.87;3.47;;;;;;;;;;5124657;27;20415;-75
2021/05/08 13:16:54;;;;;;;4.67;3.67;;;;;;;;;;5126944;27;20476;-75
2021/05/08 13:19:20;;;;;;;4.63;3.30;;;;;;;;;;5131273;27;21096;-75
2021/05/08 13:21:47;;;;;;;4.43;3.40;;;;;;;;;;5131466;27;20418;-74
2021/05/08 13:24:13;;;;;;;3.60;3.30;;;;;;;;;;5131168;27;21008;-74
2021/05/08 13:26:40;;;;;;;4.90;3.50;;;;;;;;;;5131135;27;20502;-73
2021/05/08 13:29:06;;;;;;;4.47;3.30;;;;;;;;;;5113656;27;20447;-75
2021/05/08 13:31:32;;;;;;;3.80;3.40;;;;;;;;;;5127593;27;20490;-74
2021/05/08 13:33:58;;;;;;;3.70;3.40;;;;;;;;;;5120973;27;20410;-76
2021/05/08 13:36:25;;;;;;;3.83;3.33;;;;;;;;;;5112565;27;20477;-74
2021/05/08 13:38:51;;;;;;;5.07;3.33;;;;;;;;;;5120501;27;20523;-74
2021/05/08 13:41:18;;;;;;;3.67;3.37;;;;;;;;;;5110089;28;20476;-74
2021/05/08 13:43:45;;;;;;;4.70;3.90;;;;;;;;;;5125917;27;20429;-75
2021/05/08 13:46:11;;;;;;;4.77;4.27;;;;;;;;;;5110565;28;20507;-73
2021/05/08 13:48:37;;;;;;;4.13;3.83;;;;;;;;;;5123239;27;20825;-74
2021/05/08 13:51:03;;;;;;;5.03;3.70;;;;;;;;;;5102184;27;20434;-75
2021/05/08 13:53:29;;;;;;;4.43;4.07;;;;;;;;;;5112846;27;20416;-75
2021/05/08 13:55:55;;;;;;;4.20;3.90;;;;;;;;;;5109412;28;20494;-75
2021/05/08 13:58:21;;;;;;;4.67;4.27;;;;;;;;;;5124913;27;20529;-74
2021/05/08 14:00:47;;;;;;;4.30;3.90;;;;;;;;;;5112035;27;20423;-75
2021/05/08 14:03:13;;;;;;;4.03;3.50;;;;;;;;;;5120677;27;20837;-77
2021/05/08 14:05:39;;;;;;;3.80;3.50;;;;;;;;;;5130496;27;20473;-75
2021/05/08 14:08:05;;;;;;;6.90;4.50;;;;;;;;;;5119397;27;20463;-76
2021/05/08 14:10:31;;;;;;;4.90;4.50;;;;;;;;;;5109896;28;20899;-75
2021/05/08 14:12:57;;;;;;;3.60;3.30;;;;;;;;;;5116233;27;20435;-75
2021/05/08 14:15:23;;;;;;;4.73;4.10;;;;;;;;;;5108412;28;20475;-75
2021/05/08 14:17:49;;;;;;;7.60;4.90;;;;;;;;;;5122499;27;20453;-74
2021/05/08 14:20:16;;;;;;;4.90;4.30;;;;;;;;;;5130591;27;20421;-75
2021/05/08 14:22:42;;;;;;;5.43;4.17;;;;;;;;;;5127242;27;20441;-75
2021/05/08 14:25:09;;;;;;;4.40;3.97;;;;;;;;;;5129448;27;20730;-74
2021/05/08 14:27:35;;;;;;;4.27;3.80;;;;;;;;;;5108749;28;20434;-76
2021/05/08 14:30:01;;;;;;;4.00;3.57;;;;;;;;;;5110012;28;20403;-76
2021/05/08 14:32:30;;;;;;;5.00;4.00;;;;;;;;;;5109553;28;20769;-77
2021/05/08 14:34:56;;;;;;;4.07;3.77;;;;;;;;;;5109569;28;20410;-76
2021/05/08 14:37:23;;;;;;;4.60;3.73;;;;;;;;;;5127927;28;20515;-77
2021/05/08 14:39:49;;;;;;;3.97;3.57;;;;;;;;;;5117763;28;20456;-76
2021/05/08 14:42:15;;;;;;;5.53;4.27;;;;;;;;;;5121771;28;20427;-77
2021/05/08 14:44:41;;;;;;;4.50;4.00;;;;;;;;;;5115140;28;20425;-77